Time;durP1;ratioP1;P1;durP2;ratioP2;P2;SDS_P1;SDS_P2;PMS_P1;PMS_P2;Temp;Humidity;BMP_temperature;BMP_pressure;BME280_temperature;BME280_humidity;BME280_pressure;Samples;Min_cycle;Max_cycle;Signal;HPM_P1;HPM_P2
2021/09/07 00:02:21;;;;;;;19.38;12.73;;;16.80;99.90;;;;;;5056801;28;20542;-76
2021/09/07 00:04:47;;;;;;;20.58;13.57;;;16.80;99.90;;;;;;5071411;28;20495;-77
2021/09/07 00:07:13;;;;;;;24.77;14.05;;;16.80;99.90;;;;;;5064552;28;20033;-76
2021/09/07 00:09:38;;;;;;;18.27;13.15;;;16.80;99.90;;;;;;5064371;28;20040;-76
2021/09/07 00:12:05;;;;;;;19.55;13.05;;;16.80;99.90;;;;;;5053493;28;20032;-76
2021/09/07 00:14:31;;;;;;;19.25;13.40;;;16.80;99.90;;;;;;5042814;28;20037;-76
2021/09/07 00:16:56;;;;;;;19.38;13.00;;;16.80;99.90;;;;;;5067418;28;20428;-76
2021/09/07 00:19:22;;;;;;;21.90;13.43;;;16.80;99.90;;;;;;5056994;28;20111;-76
2021/09/07 00:21:48;;;;;;;21.77;14.00;;;16.80;99.90;;;;;;5049897;28;20485;-76
2021/09/07 00:24:15;;;;;;;22.02;14.57;;;16.80;99.90;;;;;;5044017;28;20123;-76
2021/09/07 00:26:41;;;;;;;23.67;14.68;;;16.80;99.90;;;;;;5063149;28;20044;-76
2021/09/07 00:29:13;;;;;;;20.65;13.93;;;16.80;99.90;;;;;;5043814;28;20047;-76
2021/09/07 00:31:38;;;;;;;25.40;14.80;;;16.80;99.90;;;;;;5055784;28;20033;-76
2021/09/07 00:34:04;;;;;;;24.95;15.02;;;16.80;99.90;;;;;;5050437;28;20051;-76
2021/09/07 00:36:30;;;;;;;24.35;14.48;;;16.80;99.90;;;;;;5056374;28;20132;-76
2021/09/07 00:38:55;;;;;;;21.25;15.05;;;16.80;99.90;;;;;;5072883;28;20423;-76
2021/09/07 00:41:21;;;;;;;22.50;14.35;;;16.80;99.90;;;;;;5065256;28;20049;-76
2021/09/07 00:43:47;;;;;;;25.25;14.50;;;16.80;99.90;;;;;;5072764;28;20108;-76
2021/09/07 00:46:13;;;;;;;23.83;16.08;;;16.70;99.90;;;;;;5063140;28;20480;-76
2021/09/07 00:48:38;;;;;;;27.98;16.05;;;16.70;99.90;;;;;;5061068;28;20072;-76
2021/09/07 00:51:04;;;;;;;24.23;15.25;;;16.70;99.90;;;;;;5064390;28;20965;-76
2021/09/07 00:53:30;;;;;;;23.48;15.80;;;16.70;99.90;;;;;;5072549;28;20040;-77
2021/09/07 00:55:57;;;;;;;25.08;16.30;;;16.70;99.90;;;;;;5067787;28;20040;-77
2021/09/07 00:58:26;;;;;;;22.08;14.75;;;16.70;99.90;;;;;;5068054;28;20076;-77
2021/09/07 01:00:52;;;;;;;25.30;15.57;;;16.70;99.90;;;;;;5072893;28;20040;-77
2021/09/07 01:03:17;;;;;;;20.52;15.30;;;16.70;99.90;;;;;;5071041;28;20744;-77
2021/09/07 01:05:43;;;;;;;22.77;14.82;;;16.70;99.90;;;;;;5059414;28;20083;-77
2021/09/07 01:08:10;;;;;;;21.85;14.82;;;16.70;99.90;;;;;;5055898;28;20392;-77
2021/09/07 01:10:36;;;;;;;20.90;15.32;;;16.70;99.90;;;;;;5045337;28;20044;-77
2021/09/07 01:13:02;;;;;;;23.10;15.48;;;16.70;99.90;;;;;;5072320;28;20511;-77
2021/09/07 01:15:28;;;;;;;23.88;16.02;;;16.70;99.90;;;;;;5043551;28;20044;-76
2021/09/07 01:17:53;;;;;;;21.55;15.70;;;16.70;99.90;;;;;;5064738;28;20040;-77
2021/09/07 01:20:19;;;;;;;21.33;16.05;;;16.70;99.90;;;;;;5061324;28;20083;-76
2021/09/07 01:22:45;;;;;;;24.58;16.70;;;16.70;99.90;;;;;;5068571;28;20443;-76
2021/09/07 01:25:12;;;;;;;23.95;15.35;;;16.70;99.90;;;;;;5055591;28;20051;-76
2021/09/07 01:27:37;;;;;;;24.08;16.15;;;16.70;99.90;;;;;;5055669;28;20044;-76
2021/09/07 01:30:04;;;;;;;21.95;15.95;;;16.70;99.90;;;;;;5071830;28;20377;-77
2021/09/07 01:32:29;;;;;;;22.08;16.45;;;16.70;99.90;;;;;;5060694;28;20111;-76
2021/09/07 01:34:55;;;;;;;24.50;16.98;;;16.70;99.90;;;;;;5064539;28;20131;-76
2021/09/07 01:37:21;;;;;;;23.38;16.73;;;16.70;99.90;;;;;;5065094;28;20041;-76
2021/09/07 01:39:47;;;;;;;21.80;15.80;;;16.70;99.90;;;;;;5059845;28;20041;-76
2021/09/07 01:42:13;;;;;;;22.45;15.98;;;16.60;99.90;;;;;;5071862;28;20055;-76
2021/09/07 01:44:41;;;;;;;25.23;16.23;;;16.60;99.90;;;;;;5040996;28;20040;-76
2021/09/07 01:47:09;;;;;;;23.10;16.05;;;16.60;99.90;;;;;;5045395;28;20047;-76
2021/09/07 01:49:34;;;;;;;22.83;17.00;;;16.60;99.90;;;;;;5065465;28;20040;-76
2021/09/07 01:52:11;;;;;;;23.35;15.45;;;16.60;99.90;;;;;;5055087;28;20055;-79
2021/09/07 01:54:45;;;;;;;23.80;16.88;;;16.60;99.90;;;;;;5064255;28;20041;-79
2021/09/07 01:57:18;;;;;;;22.25;16.27;;;16.60;99.90;;;;;;5059453;28;20433;-79
2021/09/07 01:59:44;;;;;;;22.65;15.88;;;16.70;99.90;;;;;;5071690;28;20047;-80
2021/09/07 02:02:10;;;;;;;25.88;18.05;;;16.60;99.90;;;;;;5043384;28;20048;-80
2021/09/07 02:04:35;;;;;;;25.90;15.63;;;16.60;99.90;;;;;;5071682;28;20037;-80
2021/09/07 02:07:01;;;;;;;21.40;16.15;;;16.60;99.90;;;;;;5054395;28;20055;-79
2021/09/07 02:09:27;;;;;;;23.23;16.83;;;16.60;99.90;;;;;;5059193;28;20048;-80
2021/09/07 02:11:53;;;;;;;25.75;16.90;;;16.60;99.90;;;;;;5050216;28;20041;-79
2021/09/07 02:14:18;;;;;;;22.42;16.30;;;16.60;99.90;;;;;;5025951;28;20041;-80
2021/09/07 02:16:44;;;;;;;21.35;16.23;;;16.60;99.90;;;;;;5055501;28;20519;-81
2021/09/07 02:19:10;;;;;;;23.88;16.30;;;16.60;99.90;;;;;;5053442;28;20115;-80
2021/09/07 02:21:35;;;;;;;23.60;16.55;;;16.60;99.90;;;;;;5041583;28;20477;-80
2021/09/07 02:24:04;;;;;;;24.65;16.75;;;16.60;99.90;;;;;;5071412;28;20078;-80
2021/09/07 02:26:29;;;;;;;21.15;15.45;;;16.60;99.90;;;;;;5057328;28;20479;-80
2021/09/07 02:28:55;;;;;;;24.05;16.13;;;16.60;99.90;;;;;;5066078;28;20124;-80
2021/09/07 02:31:21;;;;;;;23.35;16.70;;;16.60;99.90;;;;;;5026358;28;20049;-81
2021/09/07 02:33:46;;;;;;;27.50;16.77;;;16.60;99.90;;;;;;5068123;28;20397;-76
2021/09/07 02:36:13;;;;;;;22.67;15.75;;;16.60;99.90;;;;;;5028844;28;20126;-76
2021/09/07 02:38:39;;;;;;;25.98;16.27;;;16.60;99.90;;;;;;5062712;28;20397;-76
2021/09/07 02:41:05;;;;;;;29.33;16.33;;;16.60;99.90;;;;;;5060042;28;20051;-76
2021/09/07 02:43:30;;;;;;;24.67;16.67;;;16.60;99.90;;;;;;5041801;28;20037;-80
2021/09/07 02:45:56;;;;;;;22.60;15.70;;;16.60;99.90;;;;;;5041238;28;20441;-80
2021/09/07 02:48:23;;;;;;;25.05;15.77;;;16.60;99.90;;;;;;5071167;28;20075;-80
2021/09/07 02:50:48;;;;;;;24.52;16.05;;;16.60;99.90;;;;;;5068001;28;20036;-76
2021/09/07 02:53:14;;;;;;;24.83;15.98;;;16.70;99.90;;;;;;5070890;28;20478;-76
2021/09/07 02:55:40;;;;;;;23.00;15.27;;;16.70;99.90;;;;;;5051092;28;20453;-76
2021/09/07 02:58:06;;;;;;;23.13;15.02;;;16.70;99.90;;;;;;5069232;28;20045;-77
2021/09/07 03:00:31;;;;;;;26.85;15.73;;;16.70;99.90;;;;;;5033032;28;20116;-80
2021/09/07 03:02:58;;;;;;;25.60;15.88;;;16.70;99.90;;;;;;5052397;28;20044;-80
2021/09/07 03:05:24;;;;;;;22.38;15.05;;;16.70;99.90;;;;;;5050862;28;20037;-80
2021/09/07 03:07:50;;;;;;;22.92;14.43;;;16.70;99.90;;;;;;5063587;28;20439;-80
2021/09/07 03:10:15;;;;;;;24.30;15.70;;;16.70;99.90;;;;;;5045546;28;20036;-80
2021/09/07 03:12:50;;;;;;;22.42;14.23;;;16.70;99.90;;;;;;5038703;28;20040;-80
2021/09/07 03:15:15;;;;;;;20.52;14.77;;;16.70;99.90;;;;;;5052721;28;20053;-80
2021/09/07 03:17:41;;;;;;;21.60;14.82;;;16.60;99.90;;;;;;5036251;28;20076;-81
2021/09/07 03:20:07;;;;;;;22.73;14.80;;;16.70;99.90;;;;;;5040590;28;20037;-76
2021/09/07 03:22:33;;;;;;;22.02;15.05;;;16.60;99.90;;;;;;5069129;28;20044;-76
2021/09/07 03:24:59;;;;;;;21.10;14.60;;;16.60;99.90;;;;;;5070163;28;20401;-76
2021/09/07 03:27:24;;;;;;;23.88;15.23;;;16.60;99.90;;;;;;5042855;28;20041;-76
2021/09/07 03:29:50;;;;;;;23.70;14.30;;;16.60;99.90;;;;;;5050049;28;20044;-77
2021/09/07 03:32:16;;;;;;;26.02;16.00;;;16.60;99.90;;;;;;5033514;28;20036;-77
2021/09/07 03:34:42;;;;;;;21.95;14.90;;;16.30;99.90;;;;;;5048280;28;20067;-77
2021/09/07 03:37:10;;;;;;;23.45;14.88;;;16.60;99.90;;;;;;5021875;28;20103;-76
2021/09/07 03:39:35;;;;;;;22.77;14.77;;;16.60;99.90;;;;;;5042181;28;20473;-77
2021/09/07 03:42:01;;;;;;;22.30;14.90;;;16.60;99.90;;;;;;5057187;28;20070;-76
2021/09/07 03:44:27;;;;;;;19.63;14.50;;;16.60;99.90;;;;;;5069856;28;20063;-77
2021/09/07 03:46:53;;;;;;;19.38;14.23;;;16.60;99.90;;;;;;5071207;28;21705;-76
2021/09/07 03:49:19;;;;;;;22.33;14.45;;;16.60;99.90;;;;;;5045060;28;20048;-76
2021/09/07 03:51:46;;;;;;;21.73;14.20;;;16.70;99.90;;;;;;5069089;28;20510;-77
2021/09/07 03:54:11;;;;;;;19.77;14.65;;;16.50;99.90;;;;;;5044080;28;20072;-76
2021/09/07 03:56:37;;;;;;;21.33;14.18;;;16.50;99.90;;;;;;5074652;28;20083;-77
2021/09/07 03:59:04;;;;;;;22.10;14.13;;;16.60;99.90;;;;;;5058140;28;20052;-76
2021/09/07 04:01:29;;;;;;;19.60;14.60;;;16.50;99.90;;;;;;5052294;28;20504;-76
2021/09/07 04:03:55;;;;;;;22.30;14.85;;;16.50;99.90;;;;;;5049303;28;20078;-76
2021/09/07 04:06:21;;;;;;;19.83;14.07;;;16.50;99.90;;;;;;5060067;28;20068;-80
2021/09/07 04:08:47;;;;;;;20.42;13.38;;;16.60;99.90;;;;;;5037589;28;20128;-77
2021/09/07 04:11:13;;;;;;;22.08;13.93;;;16.50;99.90;;;;;;5059893;28;20043;-76
2021/09/07 04:13:39;;;;;;;22.65;14.48;;;16.50;99.90;;;;;;5062632;28;20485;-76
2021/09/07 04:16:05;;;;;;;18.40;13.57;;;16.50;99.90;;;;;;5056618;28;20051;-76
2021/09/07 04:18:31;;;;;;;22.55;13.88;;;16.50;99.90;;;;;;5060454;28;20044;-76
2021/09/07 04:20:57;;;;;;;18.80;12.90;;;16.50;99.90;;;;;;5073614;28;20045;-81
2021/09/07 04:23:23;;;;;;;21.00;13.93;;;16.50;99.90;;;;;;5057956;28;20036;-82
2021/09/07 04:25:48;;;;;;;17.55;12.75;;;16.50;99.90;;;;;;5064813;28;20044;-81
2021/09/07 04:28:15;;;;;;;24.27;13.82;;;16.50;99.90;;;;;;5056494;28;20062;-80
2021/09/07 04:30:41;;;;;;;22.48;14.13;;;16.50;99.90;;;;;;5059246;28;20120;-80
2021/09/07 04:33:06;;;;;;;18.85;12.38;;;16.50;99.90;;;;;;5066880;28;20170;-80
2021/09/07 04:35:32;;;;;;;25.58;13.63;;;16.70;99.90;;;;;;5073775;28;20052;-80
2021/09/07 04:37:58;;;;;;;21.38;13.75;;;16.50;99.90;;;;;;5046408;28;20041;-80
2021/09/07 04:40:24;;;;;;;20.60;13.90;;;16.50;99.90;;;;;;5064484;28;20131;-80
2021/09/07 04:42:49;;;;;;;22.00;13.18;;;16.60;99.90;;;;;;5046646;28;20048;-81
2021/09/07 04:45:15;;;;;;;16.73;11.90;;;16.50;99.90;;;;;;5072729;28;20072;-77
2021/09/07 04:47:41;;;;;;;21.83;12.57;;;16.50;99.90;;;;;;5066881;28;20044;-76
2021/09/07 04:50:07;;;;;;;19.30;12.40;;;16.70;99.90;;;;;;5062992;28;20427;-80
2021/09/07 04:52:33;;;;;;;19.08;13.82;;;16.60;99.90;;;;;;5063523;28;20040;-81
2021/09/07 04:54:59;;;;;;;17.77;12.88;;;16.80;99.90;;;;;;5069949;28;20583;-81
2021/09/07 04:57:24;;;;;;;21.67;12.57;;;16.50;99.90;;;;;;5059416;28;20102;-77
2021/09/07 04:59:50;;;;;;;21.95;12.93;;;16.50;99.90;;;;;;5055087;28;20434;-77
2021/09/07 05:02:16;;;;;;;18.38;12.43;;;16.60;99.90;;;;;;5070093;28;20128;-77
2021/09/07 05:04:42;;;;;;;19.33;13.38;;;16.50;99.90;;;;;;5065635;28;20043;-77
2021/09/07 05:07:08;;;;;;;17.58;12.35;;;16.50;99.90;;;;;;5071240;28;20041;-77
2021/09/07 05:09:33;;;;;;;21.88;13.23;;;16.50;99.90;;;;;;5072479;28;20059;-77
2021/09/07 05:11:59;;;;;;;22.65;12.93;;;16.50;99.90;;;;;;5051285;28;20048;-77
2021/09/07 05:14:25;;;;;;;18.05;12.35;;;16.60;99.90;;;;;;5070548;28;20041;-77
2021/09/07 05:16:51;;;;;;;21.80;12.57;;;16.60;99.90;;;;;;5072448;28;20503;-76
2021/09/07 05:19:16;;;;;;;17.48;11.68;;;16.60;99.90;;;;;;5049313;28;20114;-77
2021/09/07 05:21:43;;;;;;;19.70;12.68;;;16.60;99.90;;;;;;5071939;28;20036;-77
2021/09/07 05:24:09;;;;;;;16.13;11.43;;;16.60;99.90;;;;;;5073809;28;20044;-79
2021/09/07 05:26:34;;;;;;;20.63;12.05;;;16.60;99.90;;;;;;5050948;28;20477;-80
2021/09/07 05:29:00;;;;;;;21.65;11.88;;;16.60;99.90;;;;;;5045148;28;20040;-80
2021/09/07 05:31:26;;;;;;;19.05;12.40;;;16.60;99.90;;;;;;5040962;28;20044;-80
2021/09/07 05:33:51;;;;;;;16.55;11.70;;;16.60;99.90;;;;;;5072521;28;20049;-77
2021/09/07 05:36:17;;;;;;;17.25;11.75;;;16.60;99.90;;;;;;5065850;28;20052;-78
2021/09/07 05:38:43;;;;;;;15.13;10.70;;;16.60;99.90;;;;;;5041337;28;20032;-78
2021/09/07 05:41:09;;;;;;;21.83;11.75;;;16.60;99.90;;;;;;5065541;28;20048;-77
2021/09/07 05:43:34;;;;;;;18.60;11.43;;;16.60;99.90;;;;;;5054558;28;20040;-77
2021/09/07 05:46:00;;;;;;;17.30;11.82;;;16.60;99.90;;;;;;5035174;28;20041;-77
2021/09/07 05:48:26;;;;;;;16.55;11.02;;;16.60;99.90;;;;;;5060415;28;20131;-76
2021/09/07 05:50:53;;;;;;;20.27;11.20;;;16.60;99.90;;;;;;5067107;28;20090;-77
2021/09/07 05:53:18;;;;;;;17.17;12.10;;;16.60;99.90;;;;;;5048641;28;20469;-77
2021/09/07 05:55:44;;;;;;;17.30;10.90;;;16.70;99.90;;;;;;5069277;28;20032;-78
2021/09/07 05:58:10;;;;;;;19.63;11.45;;;16.70;99.90;;;;;;5047830;28;20098;-78
2021/09/07 06:00:44;;;;;;;20.83;11.50;;;16.70;99.90;;;;;;5036998;28;20509;-83
2021/09/07 06:03:18;;;;;;;21.33;11.52;;;16.70;99.90;;;;;;5052104;28;20119;-85
2021/09/07 06:05:43;;;;;;;17.50;10.85;;;16.70;99.90;;;;;;5035090;28;20509;-86
2021/09/07 06:08:09;;;;;;;21.15;11.35;;;16.70;99.90;;;;;;5052409;28;20048;-86
2021/09/07 06:10:36;;;;;;;27.25;11.80;;;16.70;99.90;;;;;;5050710;28;20437;-86
2021/09/07 06:13:08;;;;;;;26.33;12.20;;;16.70;99.90;;;;;;5071949;28;20043;-86
2021/09/07 06:15:35;;;;;;;24.05;12.00;;;16.70;99.90;;;;;;5024893;28;20044;-86
2021/09/07 06:18:01;;;;;;;21.15;11.65;;;16.80;99.90;;;;;;5051408;28;20072;-85
2021/09/07 06:20:29;;;;;;;21.38;11.82;;;16.80;99.90;;;;;;5040913;28;20056;-87
2021/09/07 06:22:58;;;;;;;20.95;12.20;;;16.70;99.90;;;;;;5033288;28;20110;-88
2021/09/07 06:25:24;;;;;;;19.08;11.43;;;16.80;99.90;;;;;;5022616;28;20087;-88
2021/09/07 06:27:52;;;;;;;18.70;12.13;;;16.80;99.90;;;;;;5017949;28;20088;-89
2021/09/07 06:30:20;;;;;;;19.40;10.50;;;16.80;99.90;;;;;;5035651;28;20045;-87
2021/09/07 06:32:46;;;;;;;22.27;10.80;;;16.80;99.90;;;;;;5045450;28;20086;-85
2021/09/07 06:35:12;;;;;;;20.73;10.80;;;16.90;99.90;;;;;;5055922;28;20068;-85
2021/09/07 06:37:38;;;;;;;21.83;11.43;;;16.60;99.90;;;;;;5041982;28;20527;-85
2021/09/07 06:40:09;;;;;;;23.10;11.75;;;16.90;99.90;;;;;;5050348;28;20083;-87
2021/09/07 06:42:36;;;;;;;18.23;10.88;;;16.90;99.90;;;;;;5061882;28;20048;-87
2021/09/07 06:45:03;;;;;;;25.40;12.52;;;16.90;99.90;;;;;;5045927;28;20513;-81
2021/09/07 06:47:29;;;;;;;25.80;11.73;;;17.00;99.90;;;;;;5033007;28;20101;-83
2021/09/07 06:49:54;;;;;;;20.85;11.50;;;17.00;99.90;;;;;;5050939;28;20473;-81
2021/09/07 06:52:21;;;;;;;22.77;11.98;;;17.00;99.90;;;;;;5059214;28;20037;-81
2021/09/07 06:54:47;;;;;;;25.75;12.75;;;17.00;99.90;;;;;;5039747;28;20384;-82
2021/09/07 06:57:13;;;;;;;19.83;11.43;;;17.00;99.90;;;;;;5065718;28;20040;-81
2021/09/07 06:59:38;;;;;;;18.77;10.95;;;16.90;99.90;;;;;;5056315;28;20120;-81
2021/09/07 07:02:04;;;;;;;18.30;11.23;;;17.00;99.90;;;;;;5059409;28;20041;-80
2021/09/07 07:04:30;;;;;;;16.80;10.40;;;17.00;99.90;;;;;;5055607;28;20041;-84
2021/09/07 07:06:55;;;;;;;23.10;11.90;;;16.90;99.90;;;;;;5053322;28;20045;-82
2021/09/07 07:09:21;;;;;;;25.20;12.38;;;17.00;99.90;;;;;;5054737;28;20048;-80
2021/09/07 07:11:47;;;;;;;18.67;11.30;;;16.90;99.90;;;;;;5051700;28;20036;-79
2021/09/07 07:14:13;;;;;;;19.27;12.10;;;17.00;99.90;;;;;;5059140;28;20049;-79
2021/09/07 07:16:38;;;;;;;17.35;11.23;;;17.00;99.90;;;;;;5065700;28;20044;-79
2021/09/07 07:19:04;;;;;;;19.02;11.60;;;17.00;99.90;;;;;;5049836;28;20090;-77
2021/09/07 07:21:30;;;;;;;20.42;12.23;;;17.00;99.90;;;;;;5063043;28;20064;-75
2021/09/07 07:23:56;;;;;;;16.33;10.77;;;17.00;99.90;;;;;;5032654;28;20037;-75
2021/09/07 07:26:22;;;;;;;19.63;11.63;;;17.10;99.90;;;;;;5032159;28;20084;-75
2021/09/07 07:28:48;;;;;;;17.67;11.57;;;17.10;99.90;;;;;;5034491;28;20080;-74
2021/09/07 07:31:13;;;;;;;20.83;11.93;;;17.10;99.90;;;;;;5051032;28;20392;-74
2021/09/07 07:33:39;;;;;;;21.40;12.43;;;17.20;99.90;;;;;;5050693;28;20036;-74
2021/09/07 07:36:05;;;;;;;19.75;12.27;;;17.20;99.90;;;;;;5049714;28;20118;-74
2021/09/07 07:38:30;;;;;;;17.95;11.70;;;17.20;99.90;;;;;;5051048;28;20025;-82
2021/09/07 07:40:56;;;;;;;20.52;11.98;;;17.30;99.90;;;;;;5050067;28;20056;-83
2021/09/07 07:43:26;;;;;;;19.85;12.43;;;17.30;99.90;;;;;;5051007;28;20041;-83
2021/09/07 07:45:52;;;;;;;21.08;12.77;;;17.30;99.90;;;;;;5033867;28;20037;-83
2021/09/07 07:48:18;;;;;;;20.55;12.43;;;17.40;99.90;;;;;;5034694;28;20048;-81
2021/09/07 07:50:44;;;;;;;24.00;12.70;;;17.50;99.90;;;;;;5029950;28;20033;-89
2021/09/07 07:53:22;;;;;;;20.80;12.35;;;17.50;99.90;;;;;;5029832;28;20049;-85
2021/09/07 07:55:50;;;;;;;23.08;12.95;;;17.50;99.90;;;;;;5056705;28;20120;-86
2021/09/07 07:58:16;;;;;;;19.13;11.55;;;17.60;99.90;;;;;;5063235;28;20150;-85
2021/09/07 08:00:45;;;;;;;20.25;12.13;;;17.60;99.90;;;;;;5054241;28;20502;-85
2021/09/07 08:03:14;;;;;;;22.42;11.70;;;17.70;99.90;;;;;;5036905;28;20501;-82
2021/09/07 08:05:43;;;;;;;19.65;12.77;;;17.70;99.90;;;;;;5067611;28;20044;-85
2021/09/07 08:08:08;;;;;;;22.23;12.63;;;17.80;99.90;;;;;;5067867;28;20036;-82
2021/09/07 08:10:39;;;;;;;19.88;12.57;;;17.80;99.90;;;;;;5057448;28;20060;-84
2021/09/07 08:13:08;;;;;;;19.15;12.32;;;17.80;99.90;;;;;;5053216;28;20039;-83
2021/09/07 08:15:34;;;;;;;17.50;11.70;;;17.90;99.90;;;;;;5057831;28;20045;-83
2021/09/07 08:18:00;;;;;;;17.50;11.85;;;17.80;99.90;;;;;;5071317;28;20101;-83
2021/09/07 08:20:29;;;;;;;20.88;12.32;;;17.90;99.90;;;;;;5064940;28;20036;-84
2021/09/07 08:22:55;;;;;;;19.70;11.88;;;18.00;99.90;;;;;;5052443;28;20045;-84
2021/09/07 08:25:33;;;;;;;22.00;11.57;;;18.00;99.90;;;;;;5019214;28;20043;-82
2021/09/07 08:28:02;;;;;;;18.40;11.73;;;17.90;99.90;;;;;;5068469;28;20051;-83
2021/09/07 08:30:30;;;;;;;19.02;11.68;;;18.20;99.90;;;;;;5056815;28;20440;-81
2021/09/07 08:32:56;;;;;;;19.17;11.90;;;17.90;99.90;;;;;;5057767;28;20123;-85
2021/09/07 08:35:22;;;;;;;18.90;11.68;;;18.30;99.90;;;;;;5054956;28;20037;-81
2021/09/07 08:37:47;;;;;;;15.77;10.20;;;18.30;99.90;;;;;;5054808;28;20036;-83
2021/09/07 08:40:16;;;;;;;21.33;11.60;;;18.30;99.90;;;;;;5059837;28;20080;-77
2021/09/07 08:42:42;;;;;;;17.08;11.60;;;18.40;99.90;;;;;;5057190;28;20037;-83
2021/09/07 08:45:13;;;;;;;15.75;10.35;;;18.40;99.90;;;;;;5065934;28;20060;-84
2021/09/07 08:47:39;;;;;;;15.98;10.05;;;18.20;99.90;;;;;;5064050;28;20048;-82
2021/09/07 08:50:06;;;;;;;17.95;11.00;;;18.50;99.90;;;;;;5026610;28;20393;-84
2021/09/07 08:52:32;;;;;;;22.23;10.73;;;18.60;99.90;;;;;;5056289;28;20033;-81
2021/09/07 08:54:58;;;;;;;20.25;11.60;;;18.60;99.90;;;;;;5055396;28;20025;-81
2021/09/07 08:57:24;;;;;;;20.60;11.45;;;18.60;99.90;;;;;;5033478;28;20091;-81
2021/09/07 09:00:26;;;;;;;14.63;10.23;;;18.70;99.90;;;;;;5052263;28;20119;-82
2021/09/07 09:02:52;;;;;;;15.65;10.02;;;18.80;99.90;;;;;;5050830;28;20061;-84
2021/09/07 09:05:30;;;;;;;20.80;11.25;;;18.90;99.90;;;;;;5060773;28;20041;-85
2021/09/07 09:08:02;;;;;;;16.33;10.93;;;19.00;99.90;;;;;;5067838;28;20039;-84
2021/09/07 09:10:31;;;;;;;16.13;10.75;;;19.00;99.90;;;;;;5062416;28;20067;-90
2021/09/07 09:13:18;;;;;;;15.15;10.57;;;19.30;99.90;;;;;;5067259;28;20408;-85
2021/09/07 09:16:04;;;;;;;14.55;10.05;;;19.10;99.90;;;;;;5032739;28;20049;-86
2021/09/07 09:18:38;;;;;;;20.77;10.40;;;19.20;99.90;;;;;;5040237;28;20041;-85
2021/09/07 09:21:30;;;;;;;16.67;10.65;;;19.20;99.90;;;;;;5034170;28;20037;-80
2021/09/07 09:24:16;;;;;;;15.57;9.93;;;19.30;99.90;;;;;;5035760;28;20362;-80
2021/09/07 09:27:01;;;;;;;;;;;19.30;99.90;;;;;;5051749;28;20043;-80
2021/09/07 09:29:40;;;;;;;16.70;10.03;;;19.50;99.90;;;;;;5053614;28;19917;-80
2021/09/07 09:32:12;;;;;;;16.88;9.68;;;19.40;99.90;;;;;;5057145;28;20044;-80
2021/09/07 09:34:41;;;;;;;14.70;9.98;;;19.50;99.90;;;;;;5059974;28;20410;-79
2021/09/07 09:37:12;;;;;;;14.77;9.95;;;19.50;99.90;;;;;;5033847;28;20048;-80
2021/09/07 09:39:41;;;;;;;18.20;9.80;;;19.50;99.90;;;;;;5053622;28;20040;-79
2021/09/07 09:42:08;;;;;;;14.55;9.90;;;19.60;99.90;;;;;;5052928;28;20087;-80
2021/09/07 09:44:37;;;;;;;22.02;10.40;;;19.60;99.90;;;;;;5052304;28;20036;-80
2021/09/07 09:47:03;;;;;;;16.85;9.85;;;19.70;99.90;;;;;;5034723;28;20072;-80
2021/09/07 09:49:30;;;;;;;15.30;9.35;;;19.70;99.90;;;;;;5050148;28;20466;-81
2021/09/07 09:52:02;;;;;;;14.63;9.13;;;19.80;99.90;;;;;;5038867;28;20385;-84
2021/09/07 09:54:30;;;;;;;16.58;9.82;;;19.90;99.90;;;;;;5054472;28;20033;-89
2021/09/07 09:56:57;;;;;;;13.93;8.85;;;20.10;99.90;;;;;;5052404;28;20029;-88
2021/09/07 09:59:27;;;;;;;16.30;9.48;;;19.90;99.90;;;;;;5040223;28;20048;-85
2021/09/07 10:01:57;;;;;;;14.48;9.88;;;19.90;99.90;;;;;;5051167;28;20151;-83
2021/09/07 10:04:23;;;;;;;14.80;8.65;;;20.00;99.90;;;;;;5050004;28;20045;-89
2021/09/07 10:06:51;;;;;;;16.60;9.77;;;20.10;99.90;;;;;;5052551;28;20045;-83
2021/09/07 10:09:23;;;;;;;20.10;10.80;;;20.10;99.90;;;;;;5054506;28;20408;-86
2021/09/07 10:12:19;;;;;;;20.35;9.57;;;20.20;99.90;;;;;;5069711;28;20036;-82
2021/09/07 10:14:56;;;;;;;17.63;10.20;;;20.20;99.90;;;;;;5064172;28;20072;-81
2021/09/07 10:23:58;;;;;;;;;;;20.30;99.90;;;;;;5011183;28;20068;-81
2021/09/07 10:26:39;;;;;;;17.80;9.38;;;20.30;99.90;;;;;;5034227;28;19924;-80
2021/09/07 10:29:33;;;;;;;16.20;9.90;;;20.40;99.90;;;;;;5051148;28;20051;-79
2021/09/07 10:31:58;;;;;;;16.13;9.90;;;20.40;99.90;;;;;;5030723;28;20063;-80
2021/09/07 10:34:28;;;;;;;19.00;10.43;;;20.50;99.90;;;;;;5034419;28;20481;-80
2021/09/07 10:37:05;;;;;;;15.93;10.38;;;20.50;99.90;;;;;;5050446;28;20041;-81
2021/09/07 10:39:33;;;;;;;18.15;10.73;;;20.60;99.90;;;;;;5059085;28;20040;-80
2021/09/07 10:42:01;;;;;;;17.33;10.02;;;20.60;99.90;;;;;;5044150;28;20135;-82
2021/09/07 10:44:30;;;;;;;14.60;9.57;;;20.70;99.90;;;;;;5062295;28;20056;-82
2021/09/07 10:47:23;;;;;;;15.05;10.27;;;20.70;99.90;;;;;;5060894;28;20124;-96
2021/09/07 10:49:54;;;;;;;13.85;9.50;;;20.80;99.90;;;;;;5041773;28;20098;-83
2021/09/07 10:52:31;;;;;;;13.95;10.05;;;20.80;99.90;;;;;;5037535;28;20036;-87
2021/09/07 10:55:09;;;;;;;16.60;10.18;;;20.80;99.90;;;;;;5033216;28;20045;-82
2021/09/07 10:57:38;;;;;;;15.80;9.48;;;20.90;99.90;;;;;;5048884;28;20037;-80
2021/09/07 11:00:13;;;;;;;14.70;9.88;;;21.00;99.90;;;;;;5065737;28;20396;-80
2021/09/07 11:02:52;;;;;;;14.05;10.00;;;21.00;99.90;;;;;;5046011;28;20051;-81
2021/09/07 11:05:32;;;;;;;12.00;9.20;;;21.10;99.90;;;;;;5061443;28;20047;-78
2021/09/07 11:08:04;;;;;;;13.23;9.90;;;21.30;99.90;;;;;;5059307;28;20111;-80
2021/09/07 11:10:34;;;;;;;16.60;10.02;;;21.20;99.90;;;;;;5060442;28;20082;-80
2021/09/07 11:13:06;;;;;;;19.08;10.27;;;21.20;99.90;;;;;;5049826;28;20040;-82
2021/09/07 11:15:38;;;;;;;15.38;10.75;;;21.30;99.90;;;;;;5052405;28;20040;-82
2021/09/07 11:18:09;;;;;;;18.08;9.63;;;21.30;99.90;;;;;;5035650;28;20067;-81
2021/09/07 11:20:38;;;;;;;15.88;10.65;;;21.40;99.90;;;;;;5034212;28;20037;-82
2021/09/07 11:23:14;;;;;;;25.05;18.27;;;21.40;99.90;;;;;;5049666;28;20045;-82
2021/09/07 11:26:01;;;;;;;16.92;10.73;;;21.40;99.90;;;;;;5051037;28;20041;-81
2021/09/07 11:28:27;;;;;;;14.60;10.68;;;21.40;99.90;;;;;;5050120;28;20048;-82
2021/09/07 11:30:53;;;;;;;15.63;10.30;;;21.40;99.90;;;;;;5050683;28;20098;-77
2021/09/07 11:33:25;;;;;;;15.27;10.18;;;21.40;99.90;;;;;;5052033;28;20075;-77
2021/09/07 11:35:54;;;;;;;20.83;11.43;;;21.40;99.90;;;;;;5050392;28;20033;-82
2021/09/07 11:38:24;;;;;;;13.70;9.95;;;21.50;99.90;;;;;;5033640;28;20124;-81
2021/09/07 11:40:53;;;;;;;13.73;10.07;;;21.50;99.90;;;;;;5033935;28;20048;-82
2021/09/07 11:43:31;;;;;;;15.20;10.07;;;21.50;99.90;;;;;;5047262;28;20532;-82
2021/09/07 11:46:07;;;;;;;17.00;10.63;;;21.50;99.90;;;;;;5033266;28;20095;-82
2021/09/07 11:48:34;;;;;;;15.20;11.10;;;21.60;99.90;;;;;;5050061;28;20072;-82
2021/09/07 11:51:00;;;;;;;14.68;10.27;;;21.60;99.90;;;;;;5033874;28;20127;-82
2021/09/07 11:53:26;;;;;;;15.73;10.98;;;21.60;99.90;;;;;;5033417;28;20482;-82
2021/09/07 11:55:53;;;;;;;15.98;10.95;;;21.70;99.90;;;;;;5050755;28;20097;-81
2021/09/07 11:58:32;;;;;;;16.90;11.40;;;21.80;99.90;;;;;;5034099;28;20037;-82
2021/09/07 12:01:22;;;;;;;18.63;11.15;;;21.80;99.90;;;;;;5042479;28;20374;-82
2021/09/07 12:04:06;;;;;;;15.88;10.65;;;21.90;99.90;;;;;;5054853;28;20052;-77
2021/09/07 12:06:38;;;;;;;20.27;12.52;;;21.90;99.90;;;;;;5020825;28;20052;-81
2021/09/07 12:09:21;;;;;;;25.02;13.20;;;22.00;99.90;;;;;;5053923;28;20099;-82
2021/09/07 12:11:49;;;;;;;21.13;11.57;;;22.00;99.90;;;;;;5049448;28;20116;-77
2021/09/07 12:14:21;;;;;;;18.25;11.68;;;22.00;99.90;;;;;;5037016;28;20051;-81
2021/09/07 12:16:57;;;;;;;18.10;11.98;;;22.00;99.90;;;;;;5042076;28;20033;-81
2021/09/07 12:19:28;;;;;;;16.27;11.52;;;22.10;99.90;;;;;;5055336;28;20041;-81
2021/09/07 12:22:08;;;;;;;18.73;11.73;;;22.10;99.90;;;;;;5060512;28;20484;-82
2021/09/07 12:24:38;;;;;;;18.58;11.05;;;22.10;99.90;;;;;;5061269;28;20068;-77
2021/09/07 12:27:24;;;;;;;19.17;11.40;;;22.20;99.90;;;;;;5054973;28;20516;-77
2021/09/07 12:30:44;;;;;;;21.25;11.38;;;22.20;99.90;;;;;;5039344;28;20170;-82
2021/09/07 12:33:21;;;;;;;18.00;11.63;;;22.20;99.90;;;;;;5037502;28;20447;-89
2021/09/07 12:36:03;;;;;;;15.85;11.32;;;22.20;99.90;;;;;;5051498;28;20041;-80
2021/09/07 12:38:32;;;;;;;18.42;12.15;;;22.20;99.90;;;;;;5057008;28;20111;-86
2021/09/07 12:41:17;;;;;;;;;;;;;;;;;;;;;
2021/09/07 12:43:53;;;;;;;14.10;10.88;;;22.30;99.90;;;;;;5049655;28;20048;-87
2021/09/07 12:46:22;;;;;;;18.48;11.45;;;22.30;99.90;;;;;;5047724;28;20059;-88